sensor_id;sensor_type;location;lat;lon;timestamp;P1;durP1;ratioP1;P2;durP2;ratioP2
67041;SDS011;53949;47.790;18.750;2024-01-30T00:00:43;21.00;;;9.90;;
67041;SDS011;53949;47.790;18.750;2024-01-30T00:03:46;27.05;;;13.18;;
67041;SDS011;53949;47.790;18.750;2024-01-30T00:06:50;25.20;;;11.20;;
67041;SDS011;53949;47.790;18.750;2024-01-30T00:09:54;20.40;;;10.20;;
67041;SDS011;53949;47.790;18.750;2024-01-30T00:12:57;37.97;;;16.58;;
67041;SDS011;53949;47.790;18.750;2024-01-30T00:16:01;34.10;;;13.20;;
67041;SDS011;53949;47.790;18.750;2024-01-30T00:19:05;24.73;;;11.43;;
67041;SDS011;53949;47.790;18.750;2024-01-30T00:22:08;19.77;;;10.15;;
67041;SDS011;53949;47.790;18.750;2024-01-30T00:25:12;19.73;;;9.35;;
67041;SDS011;53949;47.790;18.750;2024-01-30T00:28:16;24.83;;;9.17;;
67041;SDS011;53949;47.790;18.750;2024-01-30T00:31:22;19.08;;;10.25;;
67041;SDS011;53949;47.790;18.750;2024-01-30T00:34:28;24.95;;;10.68;;
67041;SDS011;53949;47.790;18.750;2024-01-30T00:37:32;23.50;;;9.65;;
67041;SDS011;53949;47.790;18.750;2024-01-30T00:40:35;19.92;;;8.70;;
67041;SDS011;53949;47.790;18.750;2024-01-30T00:43:41;18.10;;;9.40;;
67041;SDS011;53949;47.790;18.750;2024-01-30T00:46:45;16.55;;;8.27;;
67041;SDS011;53949;47.790;18.750;2024-01-30T00:49:48;17.02;;;8.18;;
67041;SDS011;53949;47.790;18.750;2024-01-30T00:52:52;18.98;;;8.88;;
67041;SDS011;53949;47.790;18.750;2024-01-30T00:55:55;13.88;;;7.37;;
67041;SDS011;53949;47.790;18.750;2024-01-30T00:58:59;14.18;;;7.10;;
67041;SDS011;53949;47.790;18.750;2024-01-30T01:02:02;12.23;;;6.57;;
67041;SDS011;53949;47.790;18.750;2024-01-30T01:05:06;12.00;;;5.95;;
67041;SDS011;53949;47.790;18.750;2024-01-30T01:08:10;18.08;;;8.63;;
67041;SDS011;53949;47.790;18.750;2024-01-30T01:11:13;16.23;;;8.32;;
67041;SDS011;53949;47.790;18.750;2024-01-30T01:14:17;19.20;;;9.10;;
67041;SDS011;53949;47.790;18.750;2024-01-30T01:17:21;18.92;;;8.80;;
67041;SDS011;53949;47.790;18.750;2024-01-30T01:20:24;20.25;;;9.05;;
67041;SDS011;53949;47.790;18.750;2024-01-30T01:23:28;15.85;;;8.20;;
67041;SDS011;53949;47.790;18.750;2024-01-30T01:26:31;16.12;;;8.40;;
67041;SDS011;53949;47.790;18.750;2024-01-30T01:29:35;16.35;;;8.27;;
67041;SDS011;53949;47.790;18.750;2024-01-30T01:32:38;15.98;;;7.82;;
67041;SDS011;53949;47.790;18.750;2024-01-30T01:35:42;18.95;;;7.30;;
67041;SDS011;53949;47.790;18.750;2024-01-30T01:38:45;18.40;;;7.47;;
67041;SDS011;53949;47.790;18.750;2024-01-30T01:41:49;18.17;;;7.45;;
67041;SDS011;53949;47.790;18.750;2024-01-30T01:44:52;17.73;;;7.37;;
67041;SDS011;53949;47.790;18.750;2024-01-30T01:47:55;13.40;;;6.95;;
67041;SDS011;53949;47.790;18.750;2024-01-30T01:50:59;18.10;;;7.57;;
67041;SDS011;53949;47.790;18.750;2024-01-30T01:54:04;17.80;;;7.62;;
67041;SDS011;53949;47.790;18.750;2024-01-30T01:57:08;17.05;;;7.80;;
67041;SDS011;53949;47.790;18.750;2024-01-30T02:00:11;16.80;;;7.87;;
67041;SDS011;53949;47.790;18.750;2024-01-30T02:03:16;15.55;;;7.03;;
67041;SDS011;53949;47.790;18.750;2024-01-30T02:06:24;19.20;;;7.87;;
67041;SDS011;53949;47.790;18.750;2024-01-30T02:09:28;15.70;;;8.10;;
67041;SDS011;53949;47.790;18.750;2024-01-30T02:12:31;13.55;;;7.40;;
67041;SDS011;53949;47.790;18.750;2024-01-30T02:15:35;16.87;;;7.25;;
67041;SDS011;53949;47.790;18.750;2024-01-30T02:18:37;11.90;;;5.87;;
67041;SDS011;53949;47.790;18.750;2024-01-30T02:21:46;13.18;;;5.45;;
67041;SDS011;53949;47.790;18.750;2024-01-30T02:24:49;11.57;;;5.70;;
67041;SDS011;53949;47.790;18.750;2024-01-30T02:27:53;8.10;;;5.05;;
67041;SDS011;53949;47.790;18.750;2024-01-30T02:30:56;10.13;;;5.62;;
67041;SDS011;53949;47.790;18.750;2024-01-30T02:34:00;11.48;;;5.87;;
67041;SDS011;53949;47.790;18.750;2024-01-30T02:37:04;15.82;;;5.65;;
67041;SDS011;53949;47.790;18.750;2024-01-30T02:40:09;11.75;;;5.78;;
67041;SDS011;53949;47.790;18.750;2024-01-30T02:43:13;10.55;;;5.43;;
67041;SDS011;53949;47.790;18.750;2024-01-30T02:46:16;14.30;;;6.00;;
67041;SDS011;53949;47.790;18.750;2024-01-30T02:49:19;11.85;;;5.60;;
67041;SDS011;53949;47.790;18.750;2024-01-30T02:52:24;12.30;;;5.60;;
67041;SDS011;53949;47.790;18.750;2024-01-30T02:55:30;14.90;;;5.25;;
67041;SDS011;53949;47.790;18.750;2024-01-30T02:58:34;12.45;;;5.30;;
67041;SDS011;53949;47.790;18.750;2024-01-30T03:01:43;12.02;;;5.55;;
67041;SDS011;53949;47.790;18.750;2024-01-30T03:04:48;21.83;;;7.25;;
67041;SDS011;53949;47.790;18.750;2024-01-30T03:07:51;17.35;;;7.18;;
67041;SDS011;53949;47.790;18.750;2024-01-30T03:10:55;12.45;;;5.95;;
67041;SDS011;53949;47.790;18.750;2024-01-30T03:13:58;14.35;;;7.28;;
67041;SDS011;53949;47.790;18.750;2024-01-30T03:17:02;16.48;;;7.28;;
67041;SDS011;53949;47.790;18.750;2024-01-30T03:20:06;15.85;;;6.97;;
67041;SDS011;53949;47.790;18.750;2024-01-30T03:23:12;17.10;;;7.93;;
67041;SDS011;53949;47.790;18.750;2024-01-30T03:26:15;13.10;;;6.90;;
67041;SDS011;53949;47.790;18.750;2024-01-30T03:29:19;12.98;;;7.28;;
67041;SDS011;53949;47.790;18.750;2024-01-30T03:32:22;15.65;;;7.20;;
67041;SDS011;53949;47.790;18.750;2024-01-30T03:35:26;15.43;;;7.50;;
67041;SDS011;53949;47.790;18.750;2024-01-30T03:38:29;16.67;;;6.93;;
67041;SDS011;53949;47.790;18.750;2024-01-30T03:41:32;12.73;;;7.10;;
67041;SDS011;53949;47.790;18.750;2024-01-30T03:44:36;14.63;;;6.90;;
67041;SDS011;53949;47.790;18.750;2024-01-30T03:47:39;15.68;;;6.35;;
67041;SDS011;53949;47.790;18.750;2024-01-30T03:50:42;16.25;;;7.22;;
67041;SDS011;53949;47.790;18.750;2024-01-30T03:53:46;15.13;;;7.32;;
67041;SDS011;53949;47.790;18.750;2024-01-30T03:56:52;13.65;;;6.87;;
67041;SDS011;53949;47.790;18.750;2024-01-30T03:59:55;16.83;;;7.93;;
67041;SDS011;53949;47.790;18.750;2024-01-30T04:03:01;23.02;;;8.10;;
67041;SDS011;53949;47.790;18.750;2024-01-30T04:06:04;17.87;;;7.93;;
67041;SDS011;53949;47.790;18.750;2024-01-30T04:09:08;18.52;;;8.30;;
67041;SDS011;53949;47.790;18.750;2024-01-30T04:12:12;18.77;;;9.57;;
67041;SDS011;53949;47.790;18.750;2024-01-30T04:15:17;11.35;;;5.85;;
67041;SDS011;53949;47.790;18.750;2024-01-30T04:18:21;13.52;;;6.82;;
67041;SDS011;53949;47.790;18.750;2024-01-30T04:21:25;13.57;;;6.40;;
67041;SDS011;53949;47.790;18.750;2024-01-30T04:24:29;11.43;;;4.78;;
67041;SDS011;53949;47.790;18.750;2024-01-30T04:27:32;16.50;;;7.00;;
67041;SDS011;53949;47.790;18.750;2024-01-30T04:30:36;14.52;;;6.87;;
67041;SDS011;53949;47.790;18.750;2024-01-30T04:33:39;12.95;;;6.60;;
67041;SDS011;53949;47.790;18.750;2024-01-30T04:36:44;14.30;;;6.20;;
67041;SDS011;53949;47.790;18.750;2024-01-30T04:39:48;11.18;;;4.90;;
67041;SDS011;53949;47.790;18.750;2024-01-30T04:42:51;14.82;;;6.55;;
67041;SDS011;53949;47.790;18.750;2024-01-30T04:45:55;12.15;;;5.90;;
67041;SDS011;53949;47.790;18.750;2024-01-30T04:48:59;13.55;;;5.62;;
67041;SDS011;53949;47.790;18.750;2024-01-30T04:52:03;12.65;;;5.93;;
67041;SDS011;53949;47.790;18.750;2024-01-30T04:55:07;13.02;;;5.85;;
67041;SDS011;53949;47.790;18.750;2024-01-30T04:58:10;10.57;;;5.50;;
67041;SDS011;53949;47.790;18.750;2024-01-30T05:01:17;12.45;;;5.68;;
67041;SDS011;53949;47.790;18.750;2024-01-30T05:04:20;14.48;;;5.70;;
67041;SDS011;53949;47.790;18.750;2024-01-30T05:07:25;9.18;;;5.50;;
67041;SDS011;53949;47.790;18.750;2024-01-30T05:10:28;12.02;;;5.45;;
67041;SDS011;53949;47.790;18.750;2024-01-30T05:13:33;10.50;;;5.75;;
67041;SDS011;53949;47.790;18.750;2024-01-30T05:16:36;14.23;;;5.97;;
67041;SDS011;53949;47.790;18.750;2024-01-30T05:19:43;14.57;;;6.10;;
67041;SDS011;53949;47.790;18.750;2024-01-30T05:22:47;16.58;;;6.12;;
67041;SDS011;53949;47.790;18.750;2024-01-30T05:25:51;14.40;;;5.40;;
67041;SDS011;53949;47.790;18.750;2024-01-30T05:28:56;10.18;;;5.95;;
67041;SDS011;53949;47.790;18.750;2024-01-30T05:32:00;13.38;;;5.35;;
67041;SDS011;53949;47.790;18.750;2024-01-30T05:35:03;14.93;;;6.18;;
67041;SDS011;53949;47.790;18.750;2024-01-30T05:38:07;13.80;;;5.80;;
67041;SDS011;53949;47.790;18.750;2024-01-30T05:41:11;12.68;;;5.72;;
67041;SDS011;53949;47.790;18.750;2024-01-30T05:44:14;10.75;;;5.87;;
67041;SDS011;53949;47.790;18.750;2024-01-30T05:47:17;12.80;;;5.50;;
67041;SDS011;53949;47.790;18.750;2024-01-30T05:50:21;10.32;;;5.20;;
67041;SDS011;53949;47.790;18.750;2024-01-30T05:53:26;13.88;;;5.18;;
67041;SDS011;53949;47.790;18.750;2024-01-30T05:56:30;8.30;;;4.78;;
67041;SDS011;53949;47.790;18.750;2024-01-30T05:59:33;15.40;;;5.45;;
67041;SDS011;53949;47.790;18.750;2024-01-30T06:02:42;9.73;;;4.45;;
67041;SDS011;53949;47.790;18.750;2024-01-30T06:05:45;8.95;;;4.65;;
67041;SDS011;53949;47.790;18.750;2024-01-30T06:08:48;12.35;;;4.82;;
67041;SDS011;53949;47.790;18.750;2024-01-30T06:11:52;8.98;;;4.95;;
67041;SDS011;53949;47.790;18.750;2024-01-30T06:14:55;11.48;;;5.07;;
67041;SDS011;53949;47.790;18.750;2024-01-30T06:18:00;13.40;;;6.33;;
67041;SDS011;53949;47.790;18.750;2024-01-30T06:21:04;8.30;;;5.20;;
67041;SDS011;53949;47.790;18.750;2024-01-30T06:24:12;10.15;;;4.70;;
67041;SDS011;53949;47.790;18.750;2024-01-30T06:27:15;9.43;;;4.62;;
67041;SDS011;53949;47.790;18.750;2024-01-30T06:30:23;12.02;;;4.97;;
67041;SDS011;53949;47.790;18.750;2024-01-30T06:33:26;10.25;;;4.93;;
67041;SDS011;53949;47.790;18.750;2024-01-30T06:36:30;13.52;;;5.97;;
67041;SDS011;53949;47.790;18.750;2024-01-30T06:39:33;15.77;;;6.65;;
67041;SDS011;53949;47.790;18.750;2024-01-30T06:42:39;17.02;;;7.62;;
67041;SDS011;53949;47.790;18.750;2024-01-30T06:45:44;18.08;;;7.47;;
67041;SDS011;53949;47.790;18.750;2024-01-30T06:48:47;13.90;;;7.07;;
67041;SDS011;53949;47.790;18.750;2024-01-30T06:51:52;13.25;;;6.70;;
67041;SDS011;53949;47.790;18.750;2024-01-30T06:54:55;16.35;;;7.22;;
67041;SDS011;53949;47.790;18.750;2024-01-30T06:57:58;12.43;;;7.07;;
67041;SDS011;53949;47.790;18.750;2024-01-30T07:01:02;16.48;;;7.50;;
67041;SDS011;53949;47.790;18.750;2024-01-30T07:04:05;13.30;;;6.35;;
67041;SDS011;53949;47.790;18.750;2024-01-30T07:07:08;16.62;;;7.28;;
67041;SDS011;53949;47.790;18.750;2024-01-30T07:10:15;13.13;;;6.87;;
67041;SDS011;53949;47.790;18.750;2024-01-30T07:13:19;19.52;;;8.27;;
67041;SDS011;53949;47.790;18.750;2024-01-30T07:16:25;13.20;;;6.43;;
67041;SDS011;53949;47.790;18.750;2024-01-30T07:19:31;19.92;;;7.72;;
67041;SDS011;53949;47.790;18.750;2024-01-30T07:22:34;18.83;;;8.35;;
67041;SDS011;53949;47.790;18.750;2024-01-30T07:25:37;18.15;;;7.90;;
67041;SDS011;53949;47.790;18.750;2024-01-30T07:28:41;17.05;;;7.60;;
67041;SDS011;53949;47.790;18.750;2024-01-30T07:31:44;16.95;;;7.28;;
67041;SDS011;53949;47.790;18.750;2024-01-30T07:34:48;13.98;;;7.20;;
67041;SDS011;53949;47.790;18.750;2024-01-30T07:38:08;21.45;;;9.65;;
67041;SDS011;53949;47.790;18.750;2024-01-30T07:41:11;17.52;;;7.78;;
67041;SDS011;53949;47.790;18.750;2024-01-30T07:44:15;16.92;;;7.25;;
67041;SDS011;53949;47.790;18.750;2024-01-30T07:47:18;16.55;;;8.15;;
67041;SDS011;53949;47.790;18.750;2024-01-30T07:50:22;18.70;;;9.13;;
67041;SDS011;53949;47.790;18.750;2024-01-30T07:53:25;14.55;;;9.02;;
67041;SDS011;53949;47.790;18.750;2024-01-30T07:56:29;19.33;;;9.60;;
67041;SDS011;53949;47.790;18.750;2024-01-30T07:59:33;18.98;;;9.27;;
67041;SDS011;53949;47.790;18.750;2024-01-30T08:02:38;19.97;;;9.33;;
67041;SDS011;53949;47.790;18.750;2024-01-30T08:05:42;18.10;;;8.93;;
67041;SDS011;53949;47.790;18.750;2024-01-30T08:08:46;20.42;;;9.80;;
67041;SDS011;53949;47.790;18.750;2024-01-30T08:11:50;22.77;;;11.77;;
67041;SDS011;53949;47.790;18.750;2024-01-30T08:14:53;22.50;;;11.07;;
67041;SDS011;53949;47.790;18.750;2024-01-30T08:17:57;24.17;;;10.98;;
67041;SDS011;53949;47.790;18.750;2024-01-30T08:21:01;22.73;;;11.48;;
67041;SDS011;53949;47.790;18.750;2024-01-30T08:24:05;37.13;;;17.60;;
67041;SDS011;53949;47.790;18.750;2024-01-30T08:27:09;42.08;;;18.08;;
67041;SDS011;53949;47.790;18.750;2024-01-30T08:30:12;50.55;;;23.60;;
67041;SDS011;53949;47.790;18.750;2024-01-30T08:33:15;62.47;;;29.95;;
67041;SDS011;53949;47.790;18.750;2024-01-30T08:36:19;58.75;;;26.30;;
67041;SDS011;53949;47.790;18.750;2024-01-30T08:39:22;61.42;;;29.00;;
67041;SDS011;53949;47.790;18.750;2024-01-30T08:42:26;57.05;;;28.40;;
67041;SDS011;53949;47.790;18.750;2024-01-30T08:45:29;55.50;;;27.13;;
67041;SDS011;53949;47.790;18.750;2024-01-30T08:48:35;44.90;;;21.35;;
67041;SDS011;53949;47.790;18.750;2024-01-30T08:51:40;37.38;;;22.13;;
67041;SDS011;53949;47.790;18.750;2024-01-30T08:54:43;43.17;;;19.07;;
67041;SDS011;53949;47.790;18.750;2024-01-30T08:57:46;33.30;;;17.40;;
67041;SDS011;53949;47.790;18.750;2024-01-30T09:00:51;33.92;;;17.05;;
67041;SDS011;53949;47.790;18.750;2024-01-30T09:06:58;31.33;;;15.57;;
67041;SDS011;53949;47.790;18.750;2024-01-30T09:10:02;35.97;;;15.98;;
67041;SDS011;53949;47.790;18.750;2024-01-30T09:13:05;40.05;;;17.62;;
67041;SDS011;53949;47.790;18.750;2024-01-30T09:16:09;33.63;;;16.50;;
67041;SDS011;53949;47.790;18.750;2024-01-30T09:19:12;26.98;;;14.45;;
67041;SDS011;53949;47.790;18.750;2024-01-30T09:22:17;29.67;;;14.43;;
67041;SDS011;53949;47.790;18.750;2024-01-30T09:25:21;27.42;;;14.68;;
67041;SDS011;53949;47.790;18.750;2024-01-30T09:28:25;26.70;;;13.85;;
67041;SDS011;53949;47.790;18.750;2024-01-30T09:31:29;20.60;;;11.40;;
67041;SDS011;53949;47.790;18.750;2024-01-30T09:34:33;23.98;;;11.52;;
67041;SDS011;53949;47.790;18.750;2024-01-30T09:37:36;20.15;;;10.30;;
67041;SDS011;53949;47.790;18.750;2024-01-30T09:40:42;20.48;;;9.82;;
67041;SDS011;53949;47.790;18.750;2024-01-30T09:43:47;15.15;;;8.82;;
67041;SDS011;53949;47.790;18.750;2024-01-30T09:46:53;16.48;;;9.43;;
67041;SDS011;53949;47.790;18.750;2024-01-30T09:49:57;16.50;;;9.23;;
67041;SDS011;53949;47.790;18.750;2024-01-30T09:53:02;18.52;;;9.32;;
67041;SDS011;53949;47.790;18.750;2024-01-30T09:56:07;19.07;;;8.73;;
67041;SDS011;53949;47.790;18.750;2024-01-30T09:59:10;21.90;;;11.40;;
67041;SDS011;53949;47.790;18.750;2024-01-30T10:04:43;16.23;;;8.70;;
67041;SDS011;53949;47.790;18.750;2024-01-30T10:07:53;16.15;;;8.40;;
67041;SDS011;53949;47.790;18.750;2024-01-30T10:10:58;14.98;;;7.80;;
67041;SDS011;53949;47.790;18.750;2024-01-30T10:14:07;20.98;;;9.70;;
67041;SDS011;53949;47.790;18.750;2024-01-30T10:17:11;14.25;;;8.00;;
67041;SDS011;53949;47.790;18.750;2024-01-30T10:20:29;17.67;;;6.97;;
67041;SDS011;53949;47.790;18.750;2024-01-30T10:23:32;20.05;;;9.48;;
67041;SDS011;53949;47.790;18.750;2024-01-30T10:29:40;14.60;;;6.85;;
67041;SDS011;53949;47.790;18.750;2024-01-30T10:32:44;12.68;;;7.25;;
67041;SDS011;53949;47.790;18.750;2024-01-30T10:35:47;15.32;;;8.27;;
67041;SDS011;53949;47.790;18.750;2024-01-30T10:38:52;16.40;;;9.63;;
67041;SDS011;53949;47.790;18.750;2024-01-30T10:41:59;13.50;;;7.45;;
67041;SDS011;53949;47.790;18.750;2024-01-30T10:45:08;14.00;;;6.90;;
67041;SDS011;53949;47.790;18.750;2024-01-30T10:48:15;23.20;;;9.40;;
67041;SDS011;53949;47.790;18.750;2024-01-30T10:51:26;13.95;;;7.45;;
67041;SDS011;53949;47.790;18.750;2024-01-30T10:54:30;8.55;;;5.75;;
67041;SDS011;53949;47.790;18.750;2024-01-30T10:57:35;10.23;;;5.90;;
67041;SDS011;53949;47.790;18.750;2024-01-30T11:00:41;11.18;;;5.97;;
67041;SDS011;53949;47.790;18.750;2024-01-30T11:03:45;12.93;;;5.68;;
67041;SDS011;53949;47.790;18.750;2024-01-30T11:06:49;9.85;;;5.47;;
67041;SDS011;53949;47.790;18.750;2024-01-30T11:09:54;9.70;;;5.80;;
67041;SDS011;53949;47.790;18.750;2024-01-30T11:13:09;12.10;;;6.68;;
67041;SDS011;53949;47.790;18.750;2024-01-30T11:16:13;9.95;;;5.97;;
67041;SDS011;53949;47.790;18.750;2024-01-30T11:19:22;11.68;;;6.07;;
67041;SDS011;53949;47.790;18.750;2024-01-30T11:22:30;9.98;;;6.03;;
67041;SDS011;53949;47.790;18.750;2024-01-30T11:25:33;11.47;;;6.70;;
67041;SDS011;53949;47.790;18.750;2024-01-30T11:28:37;13.77;;;6.22;;
67041;SDS011;53949;47.790;18.750;2024-01-30T11:31:51;13.52;;;6.55;;
67041;SDS011;53949;47.790;18.750;2024-01-30T11:34:55;12.35;;;6.93;;
67041;SDS011;53949;47.790;18.750;2024-01-30T11:37:59;12.25;;;7.12;;
67041;SDS011;53949;47.790;18.750;2024-01-30T11:41:03;13.48;;;7.40;;
67041;SDS011;53949;47.790;18.750;2024-01-30T11:44:07;11.57;;;7.18;;
67041;SDS011;53949;47.790;18.750;2024-01-30T11:47:12;12.70;;;7.30;;
67041;SDS011;53949;47.790;18.750;2024-01-30T11:50:15;14.05;;;8.50;;
67041;SDS011;53949;47.790;18.750;2024-01-30T11:53:19;11.10;;;7.47;;
67041;SDS011;53949;47.790;18.750;2024-01-30T11:56:23;12.93;;;7.35;;
67041;SDS011;53949;47.790;18.750;2024-01-30T11:59:27;13.40;;;7.90;;
67041;SDS011;53949;47.790;18.750;2024-01-30T12:02:30;14.98;;;8.57;;
67041;SDS011;53949;47.790;18.750;2024-01-30T12:05:34;18.00;;;9.10;;
67041;SDS011;53949;47.790;18.750;2024-01-30T12:08:38;14.40;;;8.27;;
67041;SDS011;53949;47.790;18.750;2024-01-30T12:11:47;13.85;;;8.00;;
67041;SDS011;53949;47.790;18.750;2024-01-30T12:14:51;15.65;;;8.48;;
67041;SDS011;53949;47.790;18.750;2024-01-30T12:18:03;17.40;;;8.73;;
67041;SDS011;53949;47.790;18.750;2024-01-30T12:21:08;15.75;;;8.75;;
67041;SDS011;53949;47.790;18.750;2024-01-30T12:24:14;13.80;;;8.05;;
67041;SDS011;53949;47.790;18.750;2024-01-30T12:27:20;14.20;;;8.00;;
67041;SDS011;53949;47.790;18.750;2024-01-30T12:30:23;12.05;;;7.65;;
67041;SDS011;53949;47.790;18.750;2024-01-30T12:33:27;11.02;;;7.80;;
67041;SDS011;53949;47.790;18.750;2024-01-30T12:36:31;13.57;;;8.80;;
67041;SDS011;53949;47.790;18.750;2024-01-30T12:39:35;14.63;;;8.93;;
67041;SDS011;53949;47.790;18.750;2024-01-30T12:42:38;13.77;;;7.82;;
67041;SDS011;53949;47.790;18.750;2024-01-30T12:45:44;14.48;;;8.50;;
67041;SDS011;53949;47.790;18.750;2024-01-30T12:48:49;11.95;;;8.20;;
67041;SDS011;53949;47.790;18.750;2024-01-30T12:51:52;16.58;;;10.20;;
67041;SDS011;53949;47.790;18.750;2024-01-30T12:54:56;13.68;;;8.60;;
67041;SDS011;53949;47.790;18.750;2024-01-30T12:57:59;11.25;;;7.80;;
67041;SDS011;53949;47.790;18.750;2024-01-30T13:01:02;11.23;;;7.18;;
67041;SDS011;53949;47.790;18.750;2024-01-30T13:04:08;13.25;;;7.18;;
67041;SDS011;53949;47.790;18.750;2024-01-30T13:07:12;11.57;;;7.25;;
67041;SDS011;53949;47.790;18.750;2024-01-30T13:10:16;8.98;;;6.22;;
67041;SDS011;53949;47.790;18.750;2024-01-30T13:13:20;10.45;;;6.93;;
67041;SDS011;53949;47.790;18.750;2024-01-30T13:16:23;12.07;;;7.12;;
67041;SDS011;53949;47.790;18.750;2024-01-30T13:19:27;11.40;;;7.07;;
67041;SDS011;53949;47.790;18.750;2024-01-30T13:22:30;9.85;;;6.45;;
67041;SDS011;53949;47.790;18.750;2024-01-30T13:25:34;8.50;;;6.10;;
67041;SDS011;53949;47.790;18.750;2024-01-30T13:28:38;12.82;;;7.53;;
67041;SDS011;53949;47.790;18.750;2024-01-30T13:31:42;10.27;;;6.97;;
67041;SDS011;53949;47.790;18.750;2024-01-30T13:34:47;10.85;;;6.70;;
67041;SDS011;53949;47.790;18.750;2024-01-30T13:37:51;12.80;;;6.67;;
67041;SDS011;53949;47.790;18.750;2024-01-30T13:40:54;10.45;;;6.40;;
67041;SDS011;53949;47.790;18.750;2024-01-30T13:44:02;13.55;;;6.85;;
67041;SDS011;53949;47.790;18.750;2024-01-30T13:47:06;9.65;;;5.90;;
67041;SDS011;53949;47.790;18.750;2024-01-30T13:50:10;8.60;;;5.95;;
67041;SDS011;53949;47.790;18.750;2024-01-30T13:53:20;9.93;;;5.40;;
67041;SDS011;53949;47.790;18.750;2024-01-30T13:56:25;6.87;;;4.90;;
67041;SDS011;53949;47.790;18.750;2024-01-30T13:59:30;8.40;;;5.07;;
67041;SDS011;53949;47.790;18.750;2024-01-30T14:02:33;7.83;;;4.53;;
67041;SDS011;53949;47.790;18.750;2024-01-30T14:05:37;6.85;;;4.62;;
67041;SDS011;53949;47.790;18.750;2024-01-30T14:08:42;7.37;;;4.45;;
67041;SDS011;53949;47.790;18.750;2024-01-30T14:11:54;6.35;;;4.85;;
67041;SDS011;53949;47.790;18.750;2024-01-30T14:14:57;9.18;;;4.65;;
67041;SDS011;53949;47.790;18.750;2024-01-30T14:18:04;7.37;;;4.28;;
67041;SDS011;53949;47.790;18.750;2024-01-30T14:21:08;8.32;;;4.78;;
67041;SDS011;53949;47.790;18.750;2024-01-30T14:24:12;8.90;;;4.90;;
67041;SDS011;53949;47.790;18.750;2024-01-30T14:27:16;7.40;;;5.15;;
67041;SDS011;53949;47.790;18.750;2024-01-30T14:30:20;8.23;;;5.22;;
67041;SDS011;53949;47.790;18.750;2024-01-30T14:33:23;12.23;;;5.97;;
67041;SDS011;53949;47.790;18.750;2024-01-30T14:36:27;14.15;;;7.03;;
67041;SDS011;53949;47.790;18.750;2024-01-30T14:39:31;40.88;;;12.70;;
67041;SDS011;53949;47.790;18.750;2024-01-30T14:42:36;11.12;;;7.85;;
67041;SDS011;53949;47.790;18.750;2024-01-30T14:45:40;11.68;;;6.43;;
67041;SDS011;53949;47.790;18.750;2024-01-30T14:48:45;13.75;;;5.97;;
67041;SDS011;53949;47.790;18.750;2024-01-30T14:51:49;9.82;;;6.47;;
67041;SDS011;53949;47.790;18.750;2024-01-30T14:54:52;10.38;;;6.50;;
67041;SDS011;53949;47.790;18.750;2024-01-30T14:57:55;10.98;;;6.07;;
67041;SDS011;53949;47.790;18.750;2024-01-30T15:00:59;11.70;;;5.62;;
67041;SDS011;53949;47.790;18.750;2024-01-30T15:04:03;9.00;;;6.20;;
67041;SDS011;53949;47.790;18.750;2024-01-30T15:07:07;10.88;;;5.70;;
67041;SDS011;53949;47.790;18.750;2024-01-30T15:10:10;9.18;;;5.95;;
67041;SDS011;53949;47.790;18.750;2024-01-30T15:13:15;9.75;;;5.75;;
67041;SDS011;53949;47.790;18.750;2024-01-30T15:16:20;9.73;;;5.72;;
67041;SDS011;53949;47.790;18.750;2024-01-30T15:19:24;8.43;;;5.72;;
67041;SDS011;53949;47.790;18.750;2024-01-30T15:22:28;13.80;;;7.60;;
67041;SDS011;53949;47.790;18.750;2024-01-30T15:25:32;12.63;;;7.20;;
67041;SDS011;53949;47.790;18.750;2024-01-30T15:28:36;11.23;;;6.45;;
67041;SDS011;53949;47.790;18.750;2024-01-30T15:31:41;10.32;;;6.03;;
67041;SDS011;53949;47.790;18.750;2024-01-30T15:34:44;13.50;;;6.95;;
67041;SDS011;53949;47.790;18.750;2024-01-30T15:37:48;13.55;;;7.55;;
67041;SDS011;53949;47.790;18.750;2024-01-30T15:40:51;13.00;;;6.82;;
67041;SDS011;53949;47.790;18.750;2024-01-30T15:43:54;10.23;;;5.62;;
67041;SDS011;53949;47.790;18.750;2024-01-30T15:46:57;9.32;;;5.20;;
67041;SDS011;53949;47.790;18.750;2024-01-30T15:50:01;8.50;;;5.20;;
67041;SDS011;53949;47.790;18.750;2024-01-30T15:53:04;9.93;;;5.43;;
67041;SDS011;53949;47.790;18.750;2024-01-30T15:56:08;10.75;;;6.68;;
67041;SDS011;53949;47.790;18.750;2024-01-30T15:59:11;10.18;;;6.18;;
67041;SDS011;53949;47.790;18.750;2024-01-30T16:02:15;9.73;;;5.25;;
67041;SDS011;53949;47.790;18.750;2024-01-30T16:05:21;7.43;;;5.00;;
67041;SDS011;53949;47.790;18.750;2024-01-30T16:08:24;11.10;;;5.75;;
67041;SDS011;53949;47.790;18.750;2024-01-30T16:11:30;7.15;;;4.85;;
67041;SDS011;53949;47.790;18.750;2024-01-30T16:14:36;9.40;;;4.55;;
67041;SDS011;53949;47.790;18.750;2024-01-30T16:17:40;8.30;;;5.00;;
67041;SDS011;53949;47.790;18.750;2024-01-30T16:23:53;6.80;;;4.93;;
67041;SDS011;53949;47.790;18.750;2024-01-30T16:26:56;11.02;;;5.60;;
67041;SDS011;53949;47.790;18.750;2024-01-30T16:30:00;9.30;;;4.90;;
67041;SDS011;53949;47.790;18.750;2024-01-30T16:36:11;11.63;;;6.10;;
67041;SDS011;53949;47.790;18.750;2024-01-30T16:39:14;7.93;;;4.70;;
67041;SDS011;53949;47.790;18.750;2024-01-30T16:42:20;13.50;;;5.50;;
67041;SDS011;53949;47.790;18.750;2024-01-30T16:45:23;12.52;;;6.12;;
67041;SDS011;53949;47.790;18.750;2024-01-30T16:48:27;15.00;;;5.97;;
67041;SDS011;53949;47.790;18.750;2024-01-30T16:51:31;8.95;;;5.65;;
67041;SDS011;53949;47.790;18.750;2024-01-30T16:54:34;11.25;;;5.93;;
67041;SDS011;53949;47.790;18.750;2024-01-30T16:57:40;10.50;;;5.68;;
67041;SDS011;53949;47.790;18.750;2024-01-30T17:00:44;11.70;;;6.12;;
67041;SDS011;53949;47.790;18.750;2024-01-30T17:03:47;10.20;;;5.97;;
67041;SDS011;53949;47.790;18.750;2024-01-30T17:06:50;18.25;;;6.93;;
67041;SDS011;53949;47.790;18.750;2024-01-30T17:09:55;13.60;;;6.17;;
67041;SDS011;53949;47.790;18.750;2024-01-30T17:12:59;12.88;;;6.22;;
67041;SDS011;53949;47.790;18.750;2024-01-30T17:16:02;14.38;;;6.47;;
67041;SDS011;53949;47.790;18.750;2024-01-30T17:19:06;16.30;;;6.85;;
67041;SDS011;53949;47.790;18.750;2024-01-30T17:22:09;20.02;;;8.25;;
67041;SDS011;53949;47.790;18.750;2024-01-30T17:25:14;16.27;;;7.32;;
67041;SDS011;53949;47.790;18.750;2024-01-30T17:28:18;23.17;;;7.87;;
67041;SDS011;53949;47.790;18.750;2024-01-30T17:31:21;16.02;;;6.78;;
67041;SDS011;53949;47.790;18.750;2024-01-30T17:34:24;12.02;;;5.80;;
67041;SDS011;53949;47.790;18.750;2024-01-30T17:37:29;15.82;;;6.95;;
67041;SDS011;53949;47.790;18.750;2024-01-30T17:40:32;10.73;;;5.65;;
67041;SDS011;53949;47.790;18.750;2024-01-30T17:43:35;16.50;;;9.88;;
67041;SDS011;53949;47.790;18.750;2024-01-30T17:46:39;47.70;;;24.17;;
67041;SDS011;53949;47.790;18.750;2024-01-30T17:49:43;34.90;;;18.87;;
67041;SDS011;53949;47.790;18.750;2024-01-30T17:52:49;16.65;;;9.30;;
67041;SDS011;53949;47.790;18.750;2024-01-30T17:55:52;18.37;;;11.73;;
67041;SDS011;53949;47.790;18.750;2024-01-30T17:59:12;22.45;;;12.02;;
67041;SDS011;53949;47.790;18.750;2024-01-30T18:02:18;10.85;;;7.00;;
67041;SDS011;53949;47.790;18.750;2024-01-30T18:05:23;14.65;;;7.75;;
67041;SDS011;53949;47.790;18.750;2024-01-30T18:08:28;35.65;;;18.42;;
67041;SDS011;53949;47.790;18.750;2024-01-30T18:11:32;61.53;;;28.58;;